Time;durP1;ratioP1;P1;durP2;ratioP2;P2;SDS_P1;SDS_P2;PMS_P1;PMS_P2;Temp;Humidity;BMP_temperature;BMP_pressure;BME280_temperature;BME280_humidity;BME280_pressure;Samples;Min_cycle;Max_cycle;Signal;HPM_P1;HPM_P2
2022/05/08 00:00:24;;;;;;;23.60;15.13;;;12.60;99.90;;;;;;5012056;28;20385;-48
2022/05/08 00:02:54;;;;;;;22.20;14.55;;;12.60;99.90;;;;;;5005032;28;20410;-49
2022/05/08 00:05:19;;;;;;;21.95;15.10;;;12.50;99.90;;;;;;4995848;28;20804;-49
2022/05/08 00:07:45;;;;;;;22.45;15.15;;;12.40;99.90;;;;;;5010925;28;20393;-49
2022/05/08 00:10:11;;;;;;;20.73;15.63;;;12.40;99.90;;;;;;5012225;28;20499;-49
2022/05/08 00:12:36;;;;;;;21.27;14.93;;;12.50;99.90;;;;;;5013255;28;20467;-49
2022/05/08 00:15:03;;;;;;;23.00;15.20;;;12.40;99.90;;;;;;5012331;28;20392;-48
2022/05/08 00:17:34;;;;;;;22.58;15.65;;;12.50;99.90;;;;;;5011136;28;20802;-49
2022/05/08 00:20:04;;;;;;;20.58;15.02;;;12.40;99.90;;;;;;5011235;28;20805;-49
2022/05/08 00:22:29;;;;;;;22.20;15.13;;;12.40;99.90;;;;;;5011317;28;20397;-49
2022/05/08 00:24:55;;;;;;;20.83;14.70;;;12.30;1.00;;;;;;5027651;28;20557;-48
2022/05/08 00:27:21;;;;;;;23.67;15.95;;;12.20;99.90;;;;;;5020143;28;20695;-48
2022/05/08 00:29:46;;;;;;;21.45;15.50;;;12.10;75.60;;;;;;5024802;28;20438;-48
2022/05/08 00:32:12;;;;;;;19.90;14.80;;;12.10;99.90;;;;;;5025544;28;20397;-49
2022/05/08 00:34:38;;;;;;;22.67;15.40;;;12.10;1.00;;;;;;5011007;28;20964;-50
2022/05/08 00:37:05;;;;;;;23.50;16.40;;;11.90;99.90;;;;;;5011682;28;20397;-50
2022/05/08 00:39:32;;;;;;;21.40;16.10;;;11.90;99.90;;;;;;5011472;28;20526;-50
2022/05/08 00:41:58;;;;;;;21.98;16.10;;;11.80;1.00;;;;;;5013755;28;21061;-50
2022/05/08 00:44:24;;;;;;;22.58;16.30;;;11.80;99.90;;;;;;5031354;28;20883;-49
2022/05/08 00:46:50;;;;;;;23.50;15.85;;;11.60;1.00;;;;;;5010323;28;20403;-49
2022/05/08 00:49:15;;;;;;;24.70;16.80;;;11.50;1.00;;;;;;5011400;28;20615;-48
2022/05/08 00:51:43;;;;;;;24.85;16.30;;;11.40;99.90;;;;;;5010530;28;20404;-50
2022/05/08 00:54:09;;;;;;;24.08;17.33;;;11.20;1.00;;;;;;5011258;28;20437;-50
2022/05/08 00:56:35;;;;;;;23.40;16.80;;;11.20;99.90;;;;;;5011408;28;20405;-49
2022/05/08 00:59:01;;;;;;;22.20;15.57;;;11.20;99.90;;;;;;5010404;28;20601;-49
2022/05/08 01:01:28;;;;;;;22.27;16.05;;;11.40;1.00;;;;;;5002743;28;20752;-49
2022/05/08 01:03:54;;;;;;;24.33;16.67;;;11.50;1.00;;;;;;5030075;28;20398;-49
2022/05/08 01:06:20;;;;;;;25.33;18.08;;;11.60;1.00;;;;;;5021216;28;20496;-48
2022/05/08 01:08:47;;;;;;;25.27;18.30;;;11.70;1.00;;;;;;5010627;28;20469;-50
2022/05/08 01:11:14;;;;;;;27.42;19.42;;;10.90;99.90;;;;;;5019133;28;20395;-49
2022/05/08 01:13:41;;;;;;;29.45;19.98;;;11.70;1.00;;;;;;5030179;28;20391;-49
2022/05/08 01:16:16;;;;;;;24.70;19.08;;;11.60;99.90;;;;;;5023394;28;20396;-49
2022/05/08 01:18:48;;;;;;;26.52;19.40;;;11.70;99.90;;;;;;5009634;28;20471;-48
2022/05/08 01:21:17;;;;;;;28.23;19.92;;;11.70;99.90;;;;;;5014792;28;20399;-50
2022/05/08 01:23:44;;;;;;;27.38;19.98;;;11.70;99.90;;;;;;5017357;28;20457;-50
2022/05/08 01:26:10;;;;;;;27.47;19.70;;;11.70;1.00;;;;;;5010128;28;20405;-50
2022/05/08 01:28:36;;;;;;;27.73;19.52;;;11.60;99.90;;;;;;5010615;28;20849;-49
2022/05/08 01:31:02;;;;;;;30.88;20.27;;;11.60;99.90;;;;;;5015430;28;20407;-48
2022/05/08 01:33:28;;;;;;;25.97;19.50;;;11.60;1.00;;;;;;5030466;28;20390;-50
2022/05/08 01:35:54;;;;;;;28.30;20.90;;;11.40;99.90;;;;;;5024479;28;20458;-50
2022/05/08 01:38:21;;;;;;;31.08;21.27;;;11.40;99.90;;;;;;5010199;28;20726;-49
2022/05/08 01:40:48;;;;;;;33.67;21.97;;;11.40;1.00;;;;;;5012653;28;20394;-49
2022/05/08 01:43:14;;;;;;;29.00;20.60;;;11.40;1.00;;;;;;5012050;28;20401;-49
2022/05/08 01:45:40;;;;;;;28.58;20.10;;;11.40;1.00;;;;;;5009445;28;20450;-50
2022/05/08 01:48:23;;;;;;;28.33;20.92;;;11.40;99.90;;;;;;5009139;28;20405;-49
2022/05/08 01:50:53;;;;;;;26.48;19.50;;;11.30;99.90;;;;;;5012456;28;20499;-49
2022/05/08 01:53:20;;;;;;;28.30;21.08;;;11.20;1.00;;;;;;5029221;28;20375;-49
2022/05/08 01:55:49;;;;;;;29.48;20.85;;;11.30;1.00;;;;;;5024522;28;20405;-49
2022/05/08 01:58:16;;;;;;;31.85;21.63;;;11.30;1.00;;;;;;4991554;28;20758;-49
2022/05/08 02:00:42;;;;;;;30.70;21.92;;;11.30;1.00;;;;;;5011029;28;20389;-50
2022/05/08 02:03:08;;;;;;;29.50;22.00;;;11.20;99.90;;;;;;5028946;28;20410;-49
2022/05/08 02:05:33;;;;;;;28.15;20.48;;;11.20;99.90;;;;;;5027608;28;20863;-49
2022/05/08 02:08:01;;;;;;;28.77;20.27;;;11.10;99.90;;;;;;5008702;28;20385;-49
2022/05/08 02:10:27;;;;;;;29.45;20.88;;;11.10;1.00;;;;;;4991779;28;20421;-49
2022/05/08 02:12:52;;;;;;;26.70;20.05;;;11.20;99.90;;;;;;4991462;28;20399;-48
2022/05/08 02:15:19;;;;;;;28.20;19.50;;;11.10;99.90;;;;;;4989310;28;20867;-49
2022/05/08 02:17:45;;;;;;;29.25;19.70;;;11.10;99.90;;;;;;5025864;28;20549;-49
2022/05/08 02:20:11;;;;;;;27.35;19.88;;;11.20;99.90;;;;;;5017882;28;20381;-49
2022/05/08 02:22:37;;;;;;;28.35;20.30;;;11.20;99.90;;;;;;5026159;28;20465;-48
2022/05/08 02:25:04;;;;;;;29.85;19.27;;;11.20;99.90;;;;;;5005298;28;21265;-49
2022/05/08 02:27:41;;;;;;;30.45;19.95;;;11.10;99.90;;;;;;5009964;28;20403;-49
2022/05/08 02:30:11;;;;;;;28.35;19.77;;;11.00;99.90;;;;;;5009743;28;20401;-49
2022/05/08 02:32:38;;;;;;;29.50;20.07;;;11.00;99.90;;;;;;4989109;28;20891;-49
2022/05/08 02:35:06;;;;;;;26.52;19.95;;;11.00;99.90;;;;;;4992637;28;21257;-49
2022/05/08 02:37:32;;;;;;;29.92;21.20;;;10.90;1.00;;;;;;5028135;28;20772;-48
2022/05/08 02:39:58;;;;;;;27.50;19.80;;;10.80;1.00;;;;;;5026112;28;20384;-49
2022/05/08 02:42:23;;;;;;;27.17;19.27;;;10.80;1.00;;;;;;5008286;28;20557;-48
2022/05/08 02:44:49;;;;;;;28.42;19.58;;;10.80;1.00;;;;;;5007579;28;20439;-49
2022/05/08 02:47:15;;;;;;;29.27;19.65;;;10.80;1.00;;;;;;5027649;28;20395;-48
2022/05/08 02:49:40;;;;;;;28.17;19.57;;;10.60;1.00;;;;;;5009668;28;20767;-49
2022/05/08 02:52:07;;;;;;;27.13;19.80;;;10.50;1.00;;;;;;5009524;28;20445;-49
2022/05/08 02:54:32;;;;;;;26.80;18.90;;;10.50;1.00;;;;;;5008168;28;20392;-48
2022/05/08 02:59:42;;;;;;;28.48;19.20;;;10.30;1.00;;;;;;5027426;28;20828;-49
2022/05/08 03:02:08;;;;;;;28.23;19.90;;;10.40;1.00;;;;;;5025845;28;20391;-48
2022/05/08 03:04:34;;;;;;;26.77;19.15;;;10.30;1.00;;;;;;5028345;28;20417;-49
2022/05/08 03:07:02;;;;;;;27.93;19.07;;;10.20;1.00;;;;;;5025643;28;20395;-49
2022/05/08 03:09:29;;;;;;;26.55;18.73;;;10.20;1.00;;;;;;5028663;28;20379;-48
2022/05/08 03:11:54;;;;;;;26.67;19.33;;;10.30;1.00;;;;;;5025827;28;20471;-49
2022/05/08 03:14:20;;;;;;;29.53;19.93;;;10.20;1.00;;;;;;5010760;28;20389;-49
2022/05/08 03:16:47;;;;;;;26.70;18.10;;;10.30;1.00;;;;;;5008382;28;20393;-49
2022/05/08 03:19:13;;;;;;;25.60;18.67;;;10.20;1.00;;;;;;5008063;28;20492;-48
2022/05/08 03:21:40;;;;;;;26.45;19.20;;;10.30;1.00;;;;;;5008956;28;20401;-49
2022/05/08 03:24:07;;;;;;;28.00;19.63;;;10.40;1.00;;;;;;4990259;28;20416;-48
2022/05/08 03:26:33;;;;;;;29.58;20.25;;;10.40;1.00;;;;;;5025903;28;20461;-48
2022/05/08 03:28:59;;;;;;;25.20;18.70;;;10.40;1.00;;;;;;5031273;28;20391;-49
2022/05/08 03:31:25;;;;;;;26.35;18.48;;;10.30;1.00;;;;;;5030548;28;20386;-48
2022/05/08 03:33:50;;;;;;;26.05;18.98;;;10.40;1.00;;;;;;5013100;28;20391;-49
2022/05/08 03:36:16;;;;;;;28.83;19.02;;;10.30;1.00;;;;;;5030440;28;20426;-48
2022/05/08 03:38:43;;;;;;;26.27;19.67;;;10.30;1.00;;;;;;5031736;28;20405;-49
2022/05/08 03:41:09;;;;;;;28.40;19.97;;;10.10;1.00;;;;;;5030047;28;20391;-48
2022/05/08 03:43:36;;;;;;;29.83;19.65;;;10.10;1.00;;;;;;5031820;28;20391;-48
2022/05/08 03:46:01;;;;;;;26.88;18.75;;;10.00;1.00;;;;;;5029171;28;20403;-48
2022/05/08 03:48:27;;;;;;;28.10;19.13;;;9.90;1.00;;;;;;5020151;28;20793;-48
2022/05/08 03:50:53;;;;;;;28.43;20.30;;;9.90;1.00;;;;;;5011961;28;20488;-49
2022/05/08 03:53:18;;;;;;;29.60;20.07;;;10.00;1.00;;;;;;5012045;28;20949;-48
2022/05/08 03:55:44;;;;;;;32.10;19.83;;;10.00;1.00;;;;;;5012220;28;20393;-49
2022/05/08 03:58:10;;;;;;;28.63;19.67;;;10.00;1.00;;;;;;5011773;28;20469;-49
2022/05/08 04:00:35;;;;;;;26.30;19.60;;;9.90;1.00;;;;;;5013053;28;20393;-48
2022/05/08 04:03:01;;;;;;;28.07;19.30;;;10.00;1.00;;;;;;5015463;28;20908;-48
2022/05/08 04:05:27;;;;;;;27.40;19.55;;;10.00;1.00;;;;;;5031768;28;20407;-49
2022/05/08 04:07:54;;;;;;;30.65;20.30;;;10.10;1.00;;;;;;5026487;28;20454;-49
2022/05/08 04:10:19;;;;;;;26.08;19.05;;;10.10;1.00;;;;;;5012517;28;20787;-49
2022/05/08 04:12:46;;;;;;;27.13;19.70;;;10.20;1.00;;;;;;5009833;28;20404;-49
2022/05/08 04:17:56;;;;;;;25.50;18.73;;;10.30;1.00;;;;;;5010432;28;20494;-49
2022/05/08 04:20:22;;;;;;;29.27;20.20;;;10.30;1.00;;;;;;5012314;28;20390;-49
2022/05/08 04:25:32;;;;;;;28.05;19.90;;;10.30;1.00;;;;;;5015732;28;20461;-48
2022/05/08 04:27:57;;;;;;;26.83;19.43;;;10.40;1.00;;;;;;5030726;28;20753;-48
2022/05/08 04:30:23;;;;;;;27.15;19.65;;;10.40;1.00;;;;;;5018219;28;20408;-48
2022/05/08 04:32:49;;;;;;;26.67;19.57;;;10.40;1.00;;;;;;5009347;28;20487;-49
2022/05/08 04:35:15;;;;;;;26.23;19.52;;;10.50;1.00;;;;;;5012015;28;20489;-50
2022/05/08 04:37:40;;;;;;;27.30;18.53;;;10.60;1.00;;;;;;5012060;28;20391;-48
2022/05/08 04:40:08;;;;;;;27.05;19.27;;;10.60;1.00;;;;;;5030022;28;20391;-49
2022/05/08 04:42:34;;;;;;;25.80;18.15;;;10.70;1.00;;;;;;5028539;28;20474;-49
2022/05/08 04:45:00;;;;;;;23.80;18.40;;;10.80;1.00;;;;;;5010237;28;20830;-49
2022/05/08 04:47:27;;;;;;;27.00;19.13;;;10.80;1.00;;;;;;5011443;28;20396;-49
2022/05/08 04:49:53;;;;;;;26.92;19.20;;;10.90;99.90;;;;;;5030208;28;20482;-48
2022/05/08 04:52:18;;;;;;;26.60;18.67;;;10.90;99.90;;;;;;5030133;28;20514;-49
2022/05/08 04:54:44;;;;;;;26.73;18.73;;;10.90;99.90;;;;;;5028863;28;20859;-49
2022/05/08 04:57:09;;;;;;;26.40;18.20;;;10.90;99.90;;;;;;5030636;28;20394;-48
2022/05/08 04:59:35;;;;;;;26.30;19.10;;;10.90;99.90;;;;;;5011614;28;20392;-49
2022/05/08 05:02:02;;;;;;;24.73;18.98;;;10.90;99.90;;;;;;5009661;28;20762;-49
2022/05/08 05:04:28;;;;;;;26.13;18.90;;;10.80;99.90;;;;;;5028103;28;20487;-49
2022/05/08 05:06:54;;;;;;;24.38;17.85;;;10.80;99.90;;;;;;5029698;28;20391;-49
2022/05/08 05:09:20;;;;;;;28.87;18.90;;;10.80;99.90;;;;;;5013488;28;20400;-48
2022/05/08 05:11:45;;;;;;;27.35;19.83;;;11.00;99.90;;;;;;5009894;28;20405;-49
2022/05/08 05:14:11;;;;;;;25.07;19.27;;;11.30;99.90;;;;;;5005537;28;20430;-48
2022/05/08 05:16:37;;;;;;;24.15;18.40;;;11.60;99.90;;;;;;4997117;28;20757;-50
2022/05/08 05:19:04;;;;;;;26.57;19.60;;;11.90;99.90;;;;;;5007604;28;20504;-48
2022/05/08 05:21:30;;;;;;;26.00;18.80;;;12.00;1.00;;;;;;5023198;28;20536;-49
2022/05/08 05:23:56;;;;;;;27.30;19.63;;;12.10;1.00;;;;;;5006351;28;20410;-49
2022/05/08 05:26:22;;;;;;;32.25;20.58;;;12.40;99.90;;;;;;5005847;28;20773;-48
2022/05/08 05:28:48;;;;;;;24.10;18.10;;;12.70;38.30;;;;;;5005584;28;20413;-48
2022/05/08 05:31:13;;;;;;;23.00;17.17;;;13.00;99.90;;;;;;4991992;28;20975;-48
2022/05/08 05:33:39;;;;;;;24.70;19.07;;;13.20;1.00;;;;;;5006072;28;20878;-48
2022/05/08 05:36:05;;;;;;;24.77;19.00;;;13.20;1.00;;;;;;4995767;28;20880;-48
2022/05/08 05:38:31;;;;;;;27.92;19.75;;;13.20;99.90;;;;;;5011278;28;20715;-48
2022/05/08 05:40:56;;;;;;;25.83;19.70;;;13.00;1.00;;;;;;4999177;28;20524;-48
2022/05/08 05:43:22;;;;;;;26.30;19.70;;;12.90;1.00;;;;;;5003238;28;20453;-49
2022/05/08 05:47:49;;;;;;;24.70;19.42;;;13.00;99.90;;;;;;5006149;28;20486;-49
2022/05/08 05:48:35;;;;;;;31.35;20.30;;;13.20;99.90;;;;;;5004455;28;20440;-49
2022/05/08 05:51:01;;;;;;;28.75;20.00;;;13.50;99.90;;;;;;5004648;28;20431;-49
2022/05/08 05:53:27;;;;;;;24.97;19.37;;;14.00;1.00;;;;;;5008713;28;20467;-49
2022/05/08 05:55:54;;;;;;;25.37;18.80;;;14.50;99.90;;;;;;5004474;28;20895;-49
2022/05/08 05:58:19;;;;;;;25.75;19.98;;;14.70;99.90;;;;;;5006727;28;20445;-49
2022/05/08 06:00:45;;;;;;;26.30;17.70;;;15.00;1.00;;;;;;5007013;28;20387;-50
2022/05/08 06:03:10;;;;;;;22.58;18.15;;;14.70;1.00;;;;;;4988468;28;20504;-50
2022/05/08 06:05:36;;;;;;;27.15;18.50;;;14.60;1.00;;;;;;4998827;28;20463;-49
2022/05/08 06:08:02;;;;;;;23.90;18.83;;;14.40;1.00;;;;;;5004228;28;20451;-49
2022/05/08 06:10:28;;;;;;;25.67;18.23;;;14.40;1.00;;;;;;5004928;28;20912;-49
2022/05/08 06:12:53;;;;;;;23.02;17.95;;;14.40;1.00;;;;;;5002113;28;20418;-49
2022/05/08 06:15:19;;;;;;;23.40;18.20;;;14.20;1.00;;;;;;5005506;28;20404;-49
2022/05/08 06:17:45;;;;;;;22.08;17.10;;;14.10;1.00;;;;;;5005447;28;20432;-50
2022/05/08 06:20:11;;;;;;;22.27;17.40;;;14.30;1.00;;;;;;5003333;28;20504;-49
2022/05/08 06:22:37;;;;;;;22.73;16.70;;;14.50;99.90;;;;;;5003129;28;20868;-49
2022/05/08 06:25:04;;;;;;;20.57;16.30;;;14.80;99.90;;;;;;5007674;28;20423;-47
2022/05/08 06:27:31;;;;;;;21.67;17.03;;;14.90;99.90;;;;;;5003926;28;21570;-48
2022/05/08 06:29:58;;;;;;;20.85;16.48;;;15.60;99.90;;;;;;5003397;28;20417;-51
2022/05/08 06:32:24;;;;;;;21.77;16.60;;;15.00;99.90;;;;;;5006023;28;20404;-49
2022/05/08 06:34:50;;;;;;;22.30;17.33;;;15.20;99.90;;;;;;5005221;28;20393;-50
2022/05/08 06:37:16;;;;;;;21.27;17.35;;;15.40;99.90;;;;;;5004527;28;20404;-50
2022/05/08 06:39:41;;;;;;;20.52;16.83;;;15.40;99.90;;;;;;5008007;28;20757;-49
2022/05/08 06:42:08;;;;;;;22.20;17.73;;;15.70;99.90;;;;;;5005213;28;20564;-49
2022/05/08 06:44:33;;;;;;;24.75;18.70;;;15.90;99.90;;;;;;5003453;28;20425;-50
2022/05/08 06:46:59;;;;;;;23.13;18.43;;;16.00;99.90;;;;;;5001330;28;20429;-50
2022/05/08 06:49:25;;;;;;;22.35;17.48;;;16.00;99.90;;;;;;5004191;28;20503;-49
2022/05/08 06:51:51;;;;;;;22.73;16.60;;;16.20;99.90;;;;;;5005698;28;20448;-49
2022/05/08 06:54:16;;;;;;;22.55;17.80;;;16.50;80.60;;;;;;5006593;28;20447;-50
2022/05/08 06:56:42;;;;;;;22.73;18.20;;;16.90;19.40;;;;;;5004454;28;20396;-50
2022/05/08 07:01:53;;;;;;;22.27;17.55;;;18.20;1.00;;;;;;5002817;28;20506;-50
2022/05/08 07:04:19;;;;;;;22.92;18.27;;;19.10;1.00;;;;;;4995861;28;20945;-50
2022/05/08 07:06:45;;;;;;;24.30;19.70;;;19.20;1.00;;;;;;5006177;28;20505;-50
2022/05/08 07:09:15;;;;;;;24.92;19.88;;;18.80;99.90;;;;;;5006735;28;20705;-49
2022/05/08 07:11:41;;;;;;;22.70;18.80;;;18.60;99.90;;;;;;5002518;28;20510;-49
2022/05/08 07:14:07;;;;;;;25.58;18.95;;;18.40;1.00;;;;;;4999370;28;20393;-49
2022/05/08 07:16:33;;;;;;;26.07;18.80;;;18.60;99.90;;;;;;5001583;28;20406;-50
2022/05/08 07:18:59;;;;;;;23.10;18.27;;;18.90;99.90;;;;;;5006734;28;20416;-50
2022/05/08 07:21:25;;;;;;;21.92;18.20;;;19.00;99.90;;;;;;5000032;28;20435;-49
2022/05/08 07:23:50;;;;;;;23.23;18.60;;;19.20;99.90;;;;;;5004375;28;20500;-49
2022/05/08 07:26:16;;;;;;;21.20;17.65;;;19.60;99.90;;;;;;5007430;28;20453;-49
2022/05/08 07:28:42;;;;;;;23.42;18.10;;;19.80;99.90;;;;;;5003993;28;20854;-50
2022/05/08 07:31:08;;;;;;;21.70;17.95;;;19.90;99.90;;;;;;5003925;28;20459;-50
2022/05/08 07:33:37;;;;;;;23.03;18.90;;;20.10;99.90;;;;;;5002809;28;20400;-49
2022/05/08 07:36:12;;;;;;;23.60;19.40;;;19.80;99.90;;;;;;5001777;28;20893;-49
2022/05/08 07:38:43;;;;;;;23.35;18.77;;;19.30;99.90;;;;;;5004644;28;20454;-48
2022/05/08 07:41:14;;;;;;;22.35;18.13;;;19.10;99.90;;;;;;5005541;28;20396;-48
2022/05/08 07:43:42;;;;;;;23.05;18.92;;;19.10;99.90;;;;;;4999667;28;20412;-49
2022/05/08 07:46:08;;;;;;;23.00;17.92;;;19.50;99.90;;;;;;5006393;28;20551;-49
2022/05/08 07:48:34;;;;;;;20.80;16.30;;;20.00;99.90;;;;;;5000291;28;20424;-50
2022/05/08 07:51:00;;;;;;;21.08;16.92;;;20.70;99.90;;;;;;5005534;28;20402;-49
2022/05/08 07:53:31;;;;;;;22.65;17.30;;;20.60;99.90;;;;;;5003312;28;20440;-49
2022/05/08 07:55:58;;;;;;;21.30;16.63;;;20.30;99.90;;;;;;5005132;28;20459;-49
2022/05/08 07:58:28;;;;;;;21.17;17.25;;;20.40;99.90;;;;;;5003770;28;20424;-48
2022/05/08 08:00:56;;;;;;;22.00;17.13;;;20.80;99.90;;;;;;4982950;28;20769;-49
2022/05/08 08:03:24;;;;;;;22.77;18.55;;;21.40;99.90;;;;;;5003224;28;20413;-49
2022/05/08 08:05:52;;;;;;;21.02;16.23;;;20.80;99.90;;;;;;5002783;28;20412;-49
2022/05/08 08:08:21;;;;;;;19.60;15.57;;;20.90;99.90;;;;;;5005061;28;20813;-49
2022/05/08 08:10:47;;;;;;;21.20;16.70;;;21.20;99.90;;;;;;5001942;28;20412;-49
2022/05/08 08:13:13;;;;;;;19.25;15.63;;;21.70;99.90;;;;;;5006443;28;20424;-49
2022/05/08 08:15:44;;;;;;;20.67;16.87;;;21.30;99.90;;;;;;5001582;28;20830;-50
2022/05/08 08:18:11;;;;;;;20.38;17.08;;;21.50;99.90;;;;;;4982885;28;20432;-50
2022/05/08 08:20:37;;;;;;;20.25;16.48;;;21.60;99.90;;;;;;4989457;28;20441;-50
2022/05/08 08:23:03;;;;;;;20.00;16.40;;;21.50;99.90;;;;;;5004879;28;20419;-50
2022/05/08 08:25:29;;;;;;;23.40;17.27;;;21.50;99.90;;;;;;5011291;28;20417;-51
2022/05/08 08:27:55;;;;;;;23.30;16.80;;;21.30;99.90;;;;;;5000466;28;20495;-49
2022/05/08 08:30:20;;;;;;;21.77;17.10;;;21.30;99.90;;;;;;5000203;28;20484;-50
2022/05/08 08:32:47;;;;;;;21.70;16.50;;;21.30;99.90;;;;;;5004581;28;20412;-51
2022/05/08 08:35:13;;;;;;;20.52;16.88;;;21.00;99.90;;;;;;5002226;28;20434;-50
2022/05/08 08:37:39;;;;;;;20.70;17.30;;;21.30;99.90;;;;;;4999821;28;20517;-50
2022/05/08 08:40:05;;;;;;;20.35;16.83;;;21.70;99.90;;;;;;5002725;28;20412;-50
2022/05/08 08:42:31;;;;;;;21.20;16.75;;;21.90;99.90;;;;;;5003044;28;20475;-50
2022/05/08 08:47:55;;;;;;;19.83;16.27;;;22.70;99.90;;;;;;5005013;28;20914;-51
2022/05/08 08:50:26;;;;;;;20.98;16.90;;;22.90;99.90;;;;;;4992686;28;20541;-50
2022/05/08 08:52:56;;;;;;;20.55;16.60;;;22.80;99.90;;;;;;5003998;28;20863;-50
2022/05/08 08:55:22;;;;;;;19.90;15.10;;;22.90;99.90;;;;;;5003869;28;20420;-50
2022/05/08 08:57:49;;;;;;;18.63;15.45;;;23.80;99.90;;;;;;5004383;28;20438;-51
2022/05/08 09:00:15;;;;;;;19.03;17.03;;;25.80;99.90;;;;;;5003208;28;20483;-50
2022/05/08 09:02:41;;;;;;;18.75;16.63;;;26.10;99.90;;;;;;5002881;28;20400;-50
2022/05/08 09:05:08;;;;;;;17.02;13.82;;;27.40;99.90;;;;;;5004251;28;20425;-51
2022/05/08 09:07:34;;;;;;;18.88;14.20;;;28.10;99.90;;;;;;5006387;28;20423;-50
2022/05/08 09:10:16;;;;;;;14.67;12.90;;;28.70;99.90;;;;;;5004281;28;20407;-50
2022/05/08 09:13:02;;;;;;;14.35;11.60;;;29.40;99.90;;;;;;5003730;28;20406;-51
2022/05/08 09:15:35;;;;;;;13.55;10.68;;;29.20;99.90;;;;;;5005666;28;20400;-48
2022/05/08 09:18:09;;;;;;;15.67;11.27;;;29.10;99.90;;;;;;5003638;28;20516;-50
2022/05/08 09:20:48;;;;;;;16.33;14.63;;;29.20;99.90;;;;;;5005662;28;20416;-50
2022/05/08 09:23:17;;;;;;;15.65;13.20;;;29.00;99.90;;;;;;5004257;28;20404;-49
2022/05/08 09:25:59;;;;;;;16.80;15.00;;;27.80;99.90;;;;;;5003268;28;20854;-49
2022/05/08 09:28:30;;;;;;;15.53;13.20;;;26.60;99.90;;;;;;5005005;28;20440;-49
2022/05/08 09:30:58;;;;;;;15.07;13.07;;;26.20;99.90;;;;;;5003899;28;20981;-48
2022/05/08 09:33:37;;;;;;;16.27;13.20;;;25.70;99.90;;;;;;4998848;28;20900;-49
2022/05/08 09:36:05;;;;;;;15.47;13.43;;;25.50;99.90;;;;;;5000658;28;20441;-49
2022/05/08 09:38:45;;;;;;;16.17;12.60;;;25.50;99.90;;;;;;5006191;28;20463;-49
2022/05/08 09:41:13;;;;;;;18.02;13.27;;;25.40;99.90;;;;;;4998158;28;20421;-49
2022/05/08 09:43:40;;;;;;;14.13;12.20;;;25.50;99.90;;;;;;5005049;28;20449;-50
2022/05/08 09:46:08;;;;;;;16.63;12.55;;;25.40;99.90;;;;;;4996658;28;20408;-49
2022/05/08 09:48:34;;;;;;;16.58;12.75;;;25.40;99.90;;;;;;4995765;28;20413;-49
2022/05/08 09:51:05;;;;;;;15.52;13.30;;;25.60;99.90;;;;;;4999194;28;20422;-49
2022/05/08 09:53:32;;;;;;;16.90;13.38;;;24.70;99.90;;;;;;5003948;28;20467;-52
2022/05/08 09:55:59;;;;;;;17.25;12.60;;;25.30;99.90;;;;;;5006128;28;21015;-49
2022/05/08 09:58:26;;;;;;;15.77;12.60;;;25.80;99.90;;;;;;5003085;28;20478;-48
2022/05/08 10:00:52;;;;;;;15.60;13.32;;;26.00;99.90;;;;;;5002427;28;20412;-49
2022/05/08 10:03:19;;;;;;;14.15;12.45;;;26.20;99.90;;;;;;5001751;28;20440;-50
2022/05/08 10:05:45;;;;;;;15.82;13.68;;;25.40;99.90;;;;;;4999870;28;20418;-53
2022/05/08 10:08:16;;;;;;;15.35;13.75;;;24.70;99.90;;;;;;5003338;28;20437;-50
2022/05/08 10:13:55;;;;;;;16.45;12.88;;;23.70;99.90;;;;;;4987989;28;20759;-50
2022/05/08 10:16:49;;;;;;;16.45;12.40;;;23.70;99.90;;;;;;4985670;28;20418;-50
2022/05/08 10:19:18;;;;;;;15.40;13.17;;;24.20;99.90;;;;;;5004673;28;20429;-50
2022/05/08 10:22:10;;;;;;;14.90;11.17;;;24.00;99.90;;;;;;5001985;28;20416;-51
2022/05/08 10:24:51;;;;;;;15.65;12.40;;;23.80;99.90;;;;;;4998381;28;20420;-55
2022/05/08 10:27:20;;;;;;;14.63;11.77;;;24.00;99.90;;;;;;4999121;28;20435;-54
2022/05/08 10:29:54;;;;;;;16.20;12.30;;;24.20;99.90;;;;;;4984301;28;20497;-54
2022/05/08 10:32:38;;;;;;;15.10;12.15;;;24.60;99.90;;;;;;4996189;28;20421;-54
2022/05/08 10:35:17;;;;;;;14.13;11.23;;;24.60;99.90;;;;;;5000201;28;20454;-53
2022/05/08 10:37:44;;;;;;;15.15;11.10;;;23.90;99.90;;;;;;4993509;28;20400;-53
2022/05/08 10:40:25;;;;;;;15.70;12.85;;;23.80;99.90;;;;;;5000973;28;20447;-54
2022/05/08 10:42:55;;;;;;;16.08;12.18;;;24.10;99.90;;;;;;5002900;28;20417;-54
2022/05/08 10:45:33;;;;;;;13.90;12.20;;;24.40;99.90;;;;;;4997064;28;20420;-54
2022/05/08 10:47:59;;;;;;;16.67;11.07;;;24.30;99.90;;;;;;4993969;28;20425;-54
2022/05/08 10:50:25;;;;;;;14.70;10.52;;;23.90;99.90;;;;;;4989059;28;20449;-54
2022/05/08 10:52:51;;;;;;;15.13;11.57;;;23.60;99.90;;;;;;5000720;28;20418;-55
2022/05/08 10:55:18;;;;;;;15.47;11.47;;;23.50;99.90;;;;;;4995232;28;20942;-55
2022/05/08 10:57:54;;;;;;;15.23;12.37;;;23.60;99.90;;;;;;5004135;28;20868;-54
2022/05/08 11:00:22;;;;;;;14.60;11.77;;;23.80;99.90;;;;;;4987292;28;20859;-54
2022/05/08 11:02:56;;;;;;;14.65;11.75;;;23.90;99.90;;;;;;5003806;28;20459;-54
2022/05/08 11:05:29;;;;;;;14.50;10.55;;;24.10;99.90;;;;;;5005578;28;20418;-54
2022/05/08 11:08:00;;;;;;;16.67;11.13;;;24.70;99.90;;;;;;4983776;28;20770;-54
2022/05/08 11:10:28;;;;;;;13.05;10.95;;;24.80;99.90;;;;;;5003071;28;20474;-54
2022/05/08 11:13:04;;;;;;;12.05;9.73;;;24.90;99.90;;;;;;5001258;28;20403;-54
2022/05/08 11:15:46;;;;;;;12.13;8.82;;;24.00;99.90;;;;;;5006829;28;20915;-55
2022/05/08 11:18:17;;;;;;;13.07;9.40;;;23.70;99.90;;;;;;4998166;28;20432;-55
2022/05/08 11:20:50;;;;;;;11.75;8.73;;;24.00;99.90;;;;;;4989951;28;20726;-55
2022/05/08 11:23:24;;;;;;;10.90;8.00;;;24.20;99.90;;;;;;5007660;28;20901;-54
2022/05/08 11:25:55;;;;;;;12.25;8.50;;;24.30;99.90;;;;;;5017561;28;20419;-54
2022/05/08 11:28:23;;;;;;;14.38;8.38;;;24.20;99.90;;;;;;5004177;28;20463;-55
2022/05/08 11:30:50;;;;;;;11.43;8.70;;;24.00;99.90;;;;;;5007410;28;21164;-55
2022/05/08 11:36:04;;;;;;;11.00;8.47;;;24.50;99.90;;;;;;5006409;28;20429;-55
2022/05/08 11:38:51;;;;;;;13.02;9.90;;;24.60;99.90;;;;;;5006244;28;20396;-55
2022/05/08 11:41:34;;;;;;;10.30;9.05;;;24.70;99.90;;;;;;5007821;28;20928;-54
2022/05/08 11:44:02;;;;;;;12.73;9.80;;;24.90;99.90;;;;;;5007772;28;20491;-54
2022/05/08 11:46:36;;;;;;;10.60;8.63;;;24.60;99.90;;;;;;5012421;28;20464;-54
2022/05/08 11:49:14;;;;;;;11.57;8.50;;;24.70;99.90;;;;;;5011339;28;20439;-57
2022/05/08 11:51:42;;;;;;;12.90;8.07;;;24.70;99.90;;;;;;4993908;28;20451;-55
2022/05/08 11:54:18;;;;;;;11.65;8.50;;;24.60;99.90;;;;;;5007349;28;20500;-56
2022/05/08 11:56:44;;;;;;;11.20;8.80;;;25.00;99.90;;;;;;5004856;28;20404;-54
2022/05/08 11:59:17;;;;;;;11.15;8.68;;;24.60;99.90;;;;;;4990793;28;20491;-54
2022/05/08 12:01:53;;;;;;;13.03;9.10;;;24.60;99.90;;;;;;5009201;28;20389;-55
2022/05/08 12:04:22;;;;;;;11.45;8.98;;;24.20;99.90;;;;;;5010742;28;20393;-56
2022/05/08 12:07:03;;;;;;;12.00;8.35;;;24.20;99.90;;;;;;5013208;28;20444;-55
2022/05/08 12:09:31;;;;;;;11.70;9.35;;;24.20;99.90;;;;;;5012126;28;20397;-55
2022/05/08 12:12:17;;;;;;;11.18;8.40;;;23.70;99.90;;;;;;5009874;28;20773;-54
2022/05/08 12:14:43;;;;;;;13.32;8.07;;;23.70;99.90;;;;;;5009892;28;20471;-55
2022/05/08 12:17:08;;;;;;;9.70;7.67;;;23.80;99.90;;;;;;5006550;28;20409;-55
2022/05/08 12:19:34;;;;;;;10.57;7.80;;;23.90;99.90;;;;;;5009479;28;20412;-55
2022/05/08 12:22:17;;;;;;;10.90;8.00;;;23.40;99.90;;;;;;5007653;28;20396;-56
2022/05/08 12:24:43;;;;;;;11.48;7.55;;;23.30;99.90;;;;;;5009555;28;20417;-55
2022/05/08 12:27:09;;;;;;;9.73;7.03;;;23.70;99.90;;;;;;5007048;28;20409;-54
2022/05/08 12:29:34;;;;;;;9.98;7.72;;;24.10;99.90;;;;;;5008928;28;20730;-55
2022/05/08 12:32:00;;;;;;;9.88;8.27;;;23.90;99.90;;;;;;4991737;28;20714;-55
2022/05/08 12:34:27;;;;;;;11.00;8.20;;;23.90;99.90;;;;;;5012569;28;20411;-55
2022/05/08 12:36:53;;;;;;;11.30;7.90;;;24.00;99.90;;;;;;5009514;28;20393;-55
2022/05/08 12:39:19;;;;;;;10.18;7.80;;;24.10;99.90;;;;;;5006436;28;20403;-55
2022/05/08 12:41:45;;;;;;;10.20;7.80;;;24.40;99.90;;;;;;5009291;28;20894;-55
2022/05/08 12:44:12;;;;;;;11.32;7.53;;;24.20;99.90;;;;;;5005077;28;20850;-55
2022/05/08 12:46:38;;;;;;;11.00;7.35;;;23.80;99.90;;;;;;4990176;28;20428;-55
2022/05/08 12:49:04;;;;;;;10.23;7.68;;;23.70;99.90;;;;;;5008877;28;20420;-56
2022/05/08 12:51:35;;;;;;;10.95;8.05;;;24.30;99.90;;;;;;5010055;28;20511;-55
2022/05/08 12:54:02;;;;;;;9.15;7.70;;;24.80;99.90;;;;;;5006545;28;20488;-55